Tropical Cyclones
[Index]
Main Index Home Page Stock Weather Photos Extreme Storms Discussion Storm News and Storm Chasing Reports Tropical Cyclones / Hurricanes / Typhoons Weather Data and Links Wild Fires / Bushfires Weather Observation Techniques Weather Picture Catalogue Tornado Pictures and Reports Stock Video Footage and DVDs for sale
Season 2008-2009 Tropical Cyclone FREDDY Track Map
Season 2008-2009 Summaries: [BoM-AU] [JTWC-AU] [JTWC-SIO] [JTWC-SPAC] [JTWC-SH]
<<- Previous TC | BoM 2008-2009 Season | Next TC ->>

click for intensity scale information  Lat/long Grid: Show Hide

 Date Labels: Show Hide

Bureau of Meteorology Tropical Cyclone Data

Name: FREDDY
Number: 924 / 200809_10

03 Feb 2009 06:00 UTC to 13 Feb 2009 06:00 UTC

    date/time    lat    long    hPa   cat  kts
2009-02-03 06   15.5   125.5    998         20          
2009-02-03 12   15.5   122.5    998         20          
2009-02-03 18   15.3   121.6    998         20          
2009-02-04 00   15.2   120.6    998         20          
2009-02-04 06   15.0   120.3    998         20          
2009-02-04 12   15.0   119.0    998         20          
2009-02-04 18   15.6   118.8    998         20          
2009-02-05 00   16.0   118.4    998         20          
2009-02-05 06   16.2   117.8    998         20          
2009-02-05 12   16.2   116.7    998         20          
2009-02-05 18   16.3   115.2    997         25          
2009-02-06 00   16.2   114.3    996         25          
2009-02-06 06   16.0   114.1    994    1    25          
2009-02-06 12   16.0   113.8    994    1    25          
2009-02-06 18   16.0   113.5    992    1    30          
2009-02-07 00   16.0   113.3    994    1    30          
2009-02-07 06   16.4   112.8    995    1    30          
2009-02-07 12   16.3   111.8    995    1    30          
2009-02-07 18   16.1   111.1    993    1    35          
2009-02-08 00   16.1   110.3    992    1    45          
2009-02-08 06   16.4   109.5    992    1    45          
2009-02-08 12   16.6   108.6    992    1    45          
2009-02-08 18   17.0   107.7    992    1    45          
2009-02-09 00   17.7   106.9    992    1    45          
2009-02-09 06   18.3   105.7    993    1    40          
2009-02-09 12   18.9   104.5    996         35          
2009-02-09 18   19.3   103.3    999         30          
2009-02-10 00   19.8   102.2    998         30          
2009-02-10 06   20.6   100.5    999         30          
2009-02-10 12   20.9   100.0    999         25          
2009-02-10 18   21.2    99.0   1001         25          
2009-02-11 00   21.5    98.0   1000         25          
2009-02-11 06   21.7    97.4    999         25          
2009-02-11 12   21.5    96.9    999         25          
2009-02-11 18   21.1    96.3   1000         25          
2009-02-12 00   20.8    95.8   1003         20          
2009-02-12 06   20.4    94.6   1004         20          
2009-02-12 12   20.0    93.1   1005         20          
2009-02-12 18   19.7    91.7   1005         20          
2009-02-13 00   19.3    90.2   1005         20          
2009-02-13 06   19.0    88.9   1005         20          
Winds are 10-min average.

Tropical cyclone tracks developed by Michael Bath using data from the Bureau of Meteorology and Google Maps.


[Australian Severe Weather index] [Copyright Notice] [Email Contacts] [Search This Site] [Privacy Policy]
Document: tropical_cyclone_freddy.htm Updated: 29 June 2017